Shepperton, United Kingdom
Current Conditions -  °F | °C
As of 4:50 PM on Thursday 30 Oct 2014 (Local Time) from EGLL Reporting Station
Few Clouds Few Clouds  
Wind Chill: 63°   Ceiling: Unl
Heat Index: 63°   Visibility: 5mi
Dew Point: 57°   Wind: 7mph
Humidity: 82%   Direction: 170°S
Pressure: 30.06"   Gusts: NA
Location:  51.4°N, 0.45°W
Report Text: EGLL 301650Z 17006KT 130V210 8000 FEW017 17/14 Q1018
Loading
Personal Weather Stations






























Interactive Weather Map
Tropical Storm Tracking
New forecast layout! Learn more

10-Day Weather Forecast

Advertisements
Track Severe Weather on mobile